Airfield :
LOGIN :

Register | Disclaimer

   EN    FR    IT 

 










Legend :    VFR   Marginal VFR   IFR   Intensive IFR   Very Intensive IFR
Visi :
Ceiling :
>= 8 km
>= 3000ft
5 to 8 km
1000 to 3000 ft
1500m to 5 km
500 to 1000 ft
800 to 1500m
200 to 500 ft
< 800m
< 200 ft
Symbols :   Thunderstorms  Fog  Heavy snow  Heavy precipitations  Wind > 20 kt
SIGMETs :     Misc.  Thunderstorms  Icing  Turbulence  Mountain Waves  Volcanic Ashes






- Airport Elevation : 265 ft
- IATA code : BJY


LYBT - Batajnica Air Base

CURRENT METAR :
  • 161800Z 22003KT 200V260 CAVOK 25/14 Q1015 NOSIG

EXPIRED METARs :
  • 161730Z 23001KT CAVOK 25/16 Q1014 NOSIG
  • 161700Z VRB01KT CAVOK 25/15 Q1014 NOSIG
  • 161630Z 23003KT CAVOK 27/13 Q1014 NOSIG
  • 161600Z 24003KT CAVOK 28/13 Q1014 NOSIG
  • 161530Z 23005KT 200V270 CAVOK 29/14 Q1015 NOSIG

TAF TAF LYBT
Valid from the 16 at 18:00 until the 17 at 18:00 UTC


161700Z 1618/1718 23006KT CAVOK TX29/1713Z TN16/1704Z
TEMPO 1715/1718 27015G25KT 5000 TSRA SCT030CB SCT040



MET'MAP, your aeronautical weather chart ! - Copyright ORBIFLY December 2007 - Disclaimer

ORBIFLY MET'MAP TEAM :

Programming & Development : Alexandra Zaïnal
Concept & original design : Baudouin d'Aumeries
Assistance for programming : Marc-Olivier Méhu
Technical & hardware support : Manuel Goepfert

Contact : metmap@orbifly.com




SOURCES & CREDITS :

   NOAA